createdAt,value
2018-06-04T00:02:37.060Z,17.70
2018-06-04T00:05:07.081Z,17.60
2018-06-04T00:07:36.298Z,17.50
2018-06-04T00:10:06.570Z,17.50
2018-06-04T00:12:36.092Z,17.40
2018-06-04T00:15:06.735Z,17.40
2018-06-04T00:17:37.130Z,17.30
2018-06-04T00:20:05.088Z,17.30
2018-06-04T00:22:46.227Z,17.30
2018-06-04T00:25:15.871Z,17.30
2018-06-04T00:27:56.705Z,17.20
2018-06-04T00:30:25.608Z,17.20
2018-06-04T00:32:54.349Z,17.20
2018-06-04T00:35:24.815Z,17.20
2018-06-04T00:37:53.206Z,17.10
2018-06-04T00:40:23.804Z,17.10
2018-06-04T00:42:58.208Z,17.10
2018-06-04T00:45:29.475Z,17.00
2018-06-04T00:47:58.700Z,17.00
2018-06-04T00:50:30.458Z,17.10
2018-06-04T00:58:00.113Z,17.10
2018-06-04T01:03:01.153Z,16.90
2018-06-04T01:05:30.428Z,16.90
2018-06-04T01:08:01.172Z,16.80
2018-06-04T01:10:31.090Z,16.70
2018-06-04T01:12:59.047Z,16.60
2018-06-04T01:15:30.796Z,16.50
2018-06-04T01:18:00.955Z,16.60
2018-06-04T01:23:00.793Z,16.60
2018-06-04T01:25:31.999Z,16.60
2018-06-04T01:28:01.197Z,16.50
2018-06-04T01:30:32.231Z,16.50
2018-06-04T01:35:30.260Z,16.40
2018-06-04T01:37:59.782Z,16.30
2018-06-04T01:40:32.129Z,16.20
2018-06-04T01:43:01.739Z,16.10
2018-06-04T01:45:30.289Z,16.10
2018-06-04T01:47:59.015Z,16.00
2018-06-04T01:50:32.459Z,15.90
2018-06-04T01:53:02.086Z,16.00
2018-06-04T01:55:32.018Z,15.90
2018-06-04T01:58:05.527Z,15.90
2018-06-04T02:00:35.308Z,15.90
2018-06-04T02:03:04.654Z,15.90
2018-06-04T02:05:36.263Z,15.90
2018-06-04T02:08:05.470Z,15.90
2018-06-04T02:13:05.664Z,15.80
2018-06-04T02:15:38.081Z,15.80
2018-06-04T02:18:10.195Z,15.80
2018-06-04T02:20:39.431Z,15.80
2018-06-04T02:23:09.270Z,15.90
2018-06-04T02:25:39.725Z,15.90
2018-06-04T02:28:09.278Z,16.10
2018-06-04T02:30:38.072Z,16.00
2018-06-04T02:33:06.353Z,16.10
2018-06-04T02:35:37.015Z,16.00
2018-06-04T02:38:08.853Z,15.80
2018-06-04T02:40:38.866Z,15.80
2018-06-04T02:43:09.283Z,15.80
2018-06-04T02:45:39.655Z,15.70
2018-06-04T02:48:10.183Z,15.70
2018-06-04T02:50:43.868Z,15.70
2018-06-04T02:53:13.732Z,15.80
2018-06-04T02:55:41.799Z,15.70
2018-06-04T02:58:10.964Z,15.70
2018-06-04T03:00:43.524Z,15.60
2018-06-04T03:03:13.249Z,15.60
2018-06-04T03:05:42.949Z,15.70
2018-06-04T03:08:11.076Z,15.70
2018-06-04T03:10:42.429Z,15.80
2018-06-04T03:15:41.787Z,15.60
2018-06-04T03:18:13.119Z,15.50
2018-06-04T03:20:44.103Z,15.40
2018-06-04T03:23:14.090Z,15.50
2018-06-04T03:25:43.361Z,15.50
2018-06-04T03:28:13.508Z,15.40
2018-06-04T03:30:44.605Z,15.40
2018-06-04T03:33:16.411Z,15.40
2018-06-04T03:35:48.060Z,15.30
2018-06-04T03:40:51.242Z,15.40
2018-06-04T03:43:22.216Z,15.30
2018-06-04T03:45:53.699Z,15.30
2018-06-04T03:50:55.675Z,15.60
2018-06-04T03:53:27.094Z,15.50
2018-06-04T03:55:57.813Z,15.60
2018-06-04T03:58:28.441Z,15.70
2018-06-04T04:00:57.752Z,15.70
2018-06-04T04:03:25.678Z,15.60
2018-06-04T04:08:23.821Z,15.60
2018-06-04T04:10:53.569Z,15.60
2018-06-04T04:13:25.355Z,15.70
2018-06-04T04:15:56.678Z,15.80
2018-06-04T04:18:27.136Z,15.80
2018-06-04T04:20:58.394Z,15.80
2018-06-04T04:23:29.756Z,15.90
2018-06-04T04:26:01.008Z,15.80
2018-06-04T04:31:01.051Z,15.90
2018-06-04T04:33:31.198Z,15.90
2018-06-04T04:36:01.067Z,16.10
2018-06-04T04:38:29.643Z,16.10
2018-06-04T04:40:59.558Z,16.10
2018-06-04T04:43:28.872Z,16.20
2018-06-04T04:45:58.995Z,16.30
2018-06-04T04:53:26.160Z,16.50
2018-06-04T04:55:56.523Z,16.60
2018-06-04T04:58:26.616Z,16.60
2018-06-04T05:00:55.187Z,16.80
2018-06-04T05:03:24.834Z,16.90
2018-06-04T05:05:55.284Z,17.00
2018-06-04T05:08:26.312Z,17.10
2018-06-04T05:10:55.028Z,17.20
2018-06-04T05:15:52.272Z,17.40
2018-06-04T05:18:20.536Z,17.50
2018-06-04T05:23:16.875Z,17.60
2018-06-04T05:25:46.094Z,17.70
2018-06-04T05:30:43.653Z,18.40
2018-06-04T05:33:12.542Z,18.80
2018-06-04T05:35:41.620Z,19.10
2018-06-04T05:38:09.482Z,19.50
2018-06-04T05:40:38.652Z,20.10
2018-06-04T05:45:35.126Z,20.80
2018-06-04T05:48:04.199Z,20.90
2018-06-04T05:52:59.752Z,21.50
2018-06-04T05:55:27.572Z,21.60
2018-06-04T06:00:24.402Z,22.20
2018-06-04T06:02:52.256Z,22.30
2018-06-04T06:05:20.108Z,22.60
2018-06-04T06:07:49.939Z,22.90
2018-06-04T06:10:18.773Z,23.20
2018-06-04T06:12:46.584Z,23.20
2018-06-04T06:15:15.132Z,23.30
2018-06-04T06:17:42.983Z,23.50
2018-06-04T06:22:40.665Z,23.80
2018-06-04T06:25:08.885Z,23.80
2018-06-04T06:27:36.643Z,23.80
2018-06-04T06:30:04.704Z,23.70
2018-06-04T06:37:27.948Z,23.90
2018-06-04T06:39:55.769Z,23.80
2018-06-04T06:42:23.565Z,23.90
2018-06-04T06:44:51.981Z,24.00
2018-06-04T06:47:20.279Z,24.10
2018-06-04T06:49:48.088Z,24.30
2018-06-04T06:52:15.892Z,24.40
2018-06-04T06:54:43.913Z,24.50
2018-06-04T06:57:12.376Z,24.70
2018-06-04T06:59:40.179Z,24.70
2018-06-04T07:02:07.980Z,24.90
2018-06-04T07:04:36.385Z,25.00
2018-06-04T07:07:04.182Z,25.10
2018-06-04T07:09:32.023Z,25.10
2018-06-04T07:12:00.002Z,25.00
2018-06-04T07:14:27.844Z,25.20
2018-06-04T07:16:55.619Z,25.10
2018-06-04T07:19:23.400Z,25.10
2018-06-04T07:21:51.211Z,25.10
2018-06-04T07:24:19.015Z,25.10
2018-06-04T07:26:46.860Z,25.10
2018-06-04T07:34:10.120Z,25.60
2018-06-04T07:36:38.200Z,25.80
2018-06-04T07:39:07.606Z,25.90
2018-06-04T07:41:35.434Z,25.70
2018-06-04T07:44:03.289Z,25.60
2018-06-04T07:46:31.192Z,25.60
2018-06-04T07:48:59.658Z,25.80
2018-06-04T07:51:27.478Z,25.90
2018-06-04T07:58:50.649Z,25.60
2018-06-04T08:01:18.457Z,25.40
2018-06-04T08:03:46.249Z,25.20
2018-06-04T08:06:14.071Z,25.10
2018-06-04T08:11:09.791Z,25.10
2018-06-04T08:13:38.529Z,25.10
2018-06-04T08:16:06.374Z,25.20
2018-06-04T08:18:36.294Z,25.10
2018-06-04T08:21:04.080Z,25.00
2018-06-04T08:23:32.422Z,25.10
2018-06-04T08:28:28.467Z,25.40
2018-06-04T08:35:51.582Z,26.10
2018-06-04T08:38:19.679Z,26.10
2018-06-04T08:40:47.468Z,26.00
2018-06-04T08:43:15.257Z,25.90
2018-06-04T08:53:06.145Z,25.20
2018-06-04T08:55:33.951Z,25.10
2018-06-04T08:58:01.751Z,25.10
2018-06-04T09:00:29.540Z,25.30
2018-06-04T09:02:57.315Z,25.80
2018-06-04T09:05:25.842Z,26.00
2018-06-04T09:15:16.631Z,26.00
2018-06-04T09:17:44.482Z,26.00
2018-06-04T09:20:12.252Z,26.30
2018-06-04T09:22:40.042Z,26.50
2018-06-04T09:25:07.833Z,26.60
2018-06-04T09:27:35.751Z,26.60
2018-06-04T09:30:03.604Z,26.60
2018-06-04T09:34:59.821Z,26.50
2018-06-04T09:47:18.291Z,26.30
2018-06-04T09:49:46.098Z,26.20
2018-06-04T09:52:13.888Z,26.00
2018-06-04T09:57:10.068Z,26.10
2018-06-04T09:59:37.860Z,26.50
2018-06-04T10:02:05.668Z,26.60
2018-06-04T10:09:29.354Z,26.80
2018-06-04T10:11:57.133Z,26.90
2018-06-04T10:14:24.926Z,26.90
2018-06-04T10:16:52.714Z,27.00
2018-06-04T10:19:20.506Z,26.80
2018-06-04T10:21:48.280Z,26.80
2018-06-04T10:24:16.085Z,26.90
2018-06-04T10:26:43.959Z,27.00
2018-06-04T10:29:11.807Z,27.20
2018-06-04T10:31:39.629Z,27.30
2018-06-04T10:39:03.021Z,27.30
2018-06-04T10:41:30.819Z,27.40
2018-06-04T10:46:26.240Z,27.90
2018-06-04T10:53:52.399Z,28.10
2018-06-04T11:52:44.268Z,28.10
2018-06-04T11:55:12.081Z,28.20
2018-06-04T12:00:07.548Z,28.10
2018-06-04T12:02:35.328Z,28.20
2018-06-04T12:05:15.847Z,28.10
2018-06-04T12:37:05.108Z,28.30
2018-06-04T13:07:05.854Z,28.70
2018-06-04T13:21:01.208Z,29.10
2018-06-04T13:23:29.019Z,29.00
2018-06-04T13:25:56.804Z,28.90
2018-06-04T13:28:24.596Z,28.70
2018-06-04T13:30:53.978Z,28.70
2018-06-04T13:33:21.765Z,29.00
2018-06-04T13:35:49.566Z,29.10
2018-06-04T13:38:17.377Z,29.00
2018-06-04T13:40:45.192Z,29.20
2018-06-04T13:43:13.013Z,29.30
2018-06-04T13:45:43.329Z,29.40
2018-06-04T13:48:12.330Z,29.40
2018-06-04T13:50:40.150Z,29.40
2018-06-04T13:53:07.977Z,29.10
2018-06-04T13:55:35.749Z,29.30
2018-06-04T13:58:03.556Z,29.10
2018-06-04T14:00:31.425Z,28.90
2018-06-04T14:02:59.222Z,28.60
2018-06-04T14:05:27.025Z,28.50
2018-06-04T14:10:24.022Z,28.20
2018-06-04T14:12:51.832Z,28.20
2018-06-04T14:17:47.915Z,28.00
2018-06-04T14:20:15.745Z,28.00
2018-06-04T14:22:43.549Z,28.00
2018-06-04T14:25:11.355Z,28.10
2018-06-04T14:27:39.152Z,28.30
2018-06-04T14:30:06.936Z,28.50
2018-06-04T14:32:34.787Z,28.60
2018-06-04T14:37:30.343Z,29.00
2018-06-04T14:39:58.124Z,28.90
2018-06-04T14:42:25.922Z,28.80
2018-06-04T14:44:53.712Z,28.80
2018-06-04T14:47:21.501Z,28.90
2018-06-04T14:49:49.276Z,29.00
2018-06-04T14:52:17.034Z,29.20
2018-06-04T14:54:44.824Z,29.20
2018-06-04T14:57:12.592Z,29.30
2018-06-04T14:59:40.358Z,29.20
2018-06-04T15:02:08.134Z,29.30
2018-06-04T15:04:36.888Z,29.40
2018-06-04T15:07:04.715Z,29.50
2018-06-04T15:09:32.511Z,29.50
2018-06-04T15:12:00.366Z,29.60
2018-06-04T15:14:28.724Z,29.80
2018-06-04T15:16:56.499Z,29.80
2018-06-04T15:19:24.274Z,29.60
2018-06-04T15:24:19.730Z,29.50
2018-06-04T15:26:47.543Z,29.60
2018-06-04T15:34:10.684Z,30.00
2018-06-04T15:36:39.518Z,30.00
2018-06-04T15:39:08.315Z,30.00
2018-06-04T15:41:36.101Z,30.10
2018-06-04T15:46:31.598Z,30.00
2018-06-04T15:48:59.388Z,30.00
2018-06-04T15:53:54.876Z,29.70
2018-06-04T15:56:22.736Z,29.50
2018-06-04T15:58:50.546Z,29.70
2018-06-04T16:01:18.339Z,29.90
2018-06-04T16:03:46.111Z,30.10
2018-06-04T16:06:13.927Z,30.30
2018-06-04T16:08:41.723Z,30.20
2018-06-04T16:16:04.823Z,30.60
2018-06-04T16:18:33.249Z,31.00
2018-06-04T16:21:01.049Z,31.20
2018-06-04T16:25:56.510Z,30.40
2018-06-04T16:28:24.321Z,30.20
2018-06-04T16:33:19.791Z,29.60
2018-06-04T16:35:47.569Z,29.40
2018-06-04T16:38:15.929Z,29.20
2018-06-04T16:45:39.123Z,28.80
2018-06-04T16:48:06.970Z,28.70
2018-06-04T16:53:02.489Z,28.80
2018-06-04T16:55:30.340Z,28.70
2018-06-04T16:57:58.210Z,28.70
2018-06-04T17:00:26.163Z,28.70
2018-06-04T17:02:53.956Z,28.60
2018-06-04T17:05:22.492Z,28.60
2018-06-04T17:07:50.571Z,28.60
2018-06-04T17:10:18.635Z,28.60
2018-06-04T17:12:46.415Z,28.50
2018-06-04T17:15:14.255Z,28.30
2018-06-04T17:17:42.093Z,28.20
2018-06-04T17:22:37.593Z,28.00
2018-06-04T17:25:05.410Z,27.90
2018-06-04T17:27:33.177Z,27.90
2018-06-04T17:30:01.803Z,27.80
2018-06-04T17:32:29.652Z,27.60
2018-06-04T17:34:57.431Z,27.50
2018-06-04T17:37:25.210Z,27.50
2018-06-04T17:42:20.714Z,27.40
2018-06-04T17:44:48.611Z,27.40
2018-06-04T17:47:16.441Z,27.50
2018-06-04T17:49:44.903Z,27.40
2018-06-04T17:52:13.469Z,27.30
2018-06-04T17:54:41.262Z,27.20
2018-06-04T17:57:09.063Z,27.10
2018-06-04T17:59:36.844Z,27.00
2018-06-04T18:02:04.648Z,27.00
2018-06-04T18:04:33.270Z,26.90
2018-06-04T18:07:01.064Z,26.90
2018-06-04T18:11:56.868Z,26.90
2018-06-04T18:14:24.722Z,26.90
2018-06-04T18:16:52.499Z,26.90
2018-06-04T18:19:20.274Z,26.80
2018-06-04T18:21:48.225Z,26.70
2018-06-04T18:24:15.983Z,26.70
2018-06-04T18:26:43.739Z,26.60
2018-06-04T18:29:11.519Z,26.60
2018-06-04T18:31:39.310Z,26.70
2018-06-04T18:36:34.777Z,26.70
2018-06-04T18:39:03.160Z,26.60
2018-06-04T18:41:30.905Z,26.60
2018-06-04T18:46:27.026Z,26.50
2018-06-04T18:48:54.827Z,26.40
2018-06-04T18:53:51.081Z,26.00
2018-06-04T18:56:18.947Z,25.80
2018-06-04T18:58:46.792Z,25.70
2018-06-04T19:03:42.296Z,25.50
2018-06-04T19:06:10.264Z,25.40
2018-06-04T19:08:38.487Z,25.40
2018-06-04T19:11:06.536Z,25.30
2018-06-04T19:16:03.157Z,25.30
2018-06-04T19:18:31.092Z,25.20
2018-06-04T19:20:59.841Z,25.10
2018-06-04T19:23:28.319Z,25.10
2018-06-04T19:25:56.728Z,25.10
2018-06-04T19:28:25.801Z,25.10
2018-06-04T19:33:22.024Z,25.10
2018-06-04T19:35:49.813Z,25.00
2018-06-04T19:38:18.601Z,24.90
2018-06-04T19:43:14.131Z,24.20
2018-06-04T19:45:41.936Z,24.00
2018-06-04T19:48:09.792Z,23.60
2018-06-04T19:50:37.580Z,23.30
2018-06-04T19:53:05.699Z,22.80
2018-06-04T20:00:29.574Z,22.20
2018-06-04T20:02:57.406Z,22.10
2018-06-04T20:05:25.329Z,22.00
2018-06-04T20:07:53.176Z,21.90
2018-06-04T20:10:20.994Z,21.80
2018-06-04T20:12:48.771Z,21.60
2018-06-04T20:15:16.635Z,21.50
2018-06-04T20:17:44.485Z,21.50
2018-06-04T20:22:40.019Z,21.40
2018-06-04T20:27:35.514Z,21.40
2018-06-04T20:30:04.240Z,21.50
2018-06-04T20:32:32.043Z,21.40
2018-06-04T20:37:27.553Z,21.50
2018-06-04T20:39:56.562Z,21.50
2018-06-04T20:42:24.397Z,21.50
2018-06-04T20:44:52.246Z,21.40
2018-06-04T20:57:10.665Z,21.30
2018-06-04T20:59:38.478Z,21.30
2018-06-04T21:02:08.402Z,21.30
2018-06-04T21:04:36.210Z,21.30
2018-06-04T21:09:32.342Z,21.10
2018-06-04T21:14:27.899Z,21.00
2018-06-04T21:16:55.695Z,20.90
2018-06-04T21:19:23.496Z,20.90
2018-06-04T21:24:19.063Z,21.10
2018-06-04T21:26:47.806Z,21.00
2018-06-04T21:29:15.699Z,20.90
2018-06-04T21:31:43.481Z,21.00
2018-06-04T21:34:11.245Z,21.10
2018-06-04T21:36:39.018Z,21.00
2018-06-04T21:39:06.852Z,21.00
2018-06-04T21:44:03.070Z,20.80
2018-06-04T21:46:30.929Z,20.70
2018-06-04T21:48:58.724Z,20.80
2018-06-04T21:56:22.845Z,20.90
2018-06-04T22:01:18.627Z,20.90
2018-06-04T22:03:46.426Z,20.90
2018-06-04T22:06:14.271Z,20.90
2018-06-04T22:08:42.138Z,21.00
2018-06-04T22:11:10.591Z,21.00
2018-06-04T22:13:38.401Z,21.00
2018-06-04T22:16:06.998Z,21.00
2018-06-04T22:21:02.614Z,21.00
2018-06-04T22:23:30.425Z,21.10
2018-06-04T22:25:58.217Z,21.00
2018-06-04T22:28:26.091Z,21.00
2018-06-04T22:30:53.900Z,21.00
2018-06-04T22:35:49.387Z,21.10
2018-06-04T22:38:17.159Z,21.10
2018-06-04T22:40:44.938Z,21.10
2018-06-04T22:43:12.740Z,21.10
2018-06-04T22:45:40.556Z,20.90
2018-06-04T22:48:08.388Z,20.80
2018-06-04T22:50:36.191Z,20.70
2018-06-04T22:53:03.982Z,20.70
2018-06-04T23:00:32.977Z,20.50
2018-06-04T23:03:01.319Z,20.50
2018-06-04T23:05:29.106Z,20.40
2018-06-04T23:07:56.898Z,20.40
2018-06-04T23:10:24.693Z,20.50
2018-06-04T23:12:52.476Z,20.40
2018-06-04T23:15:20.251Z,20.40
2018-06-04T23:17:48.131Z,20.30
2018-06-04T23:20:15.913Z,20.30
2018-06-04T23:22:43.702Z,20.30
2018-06-04T23:25:11.512Z,20.40
2018-06-04T23:27:39.907Z,20.40
2018-06-04T23:30:07.715Z,20.30
2018-06-04T23:32:35.510Z,20.30
2018-06-04T23:35:03.463Z,20.30
2018-06-04T23:37:31.290Z,20.30
2018-06-04T23:39:59.079Z,20.30
2018-06-04T23:42:26.866Z,20.30
2018-06-04T23:44:54.646Z,20.40
2018-06-04T23:47:22.428Z,20.40
2018-06-04T23:49:50.205Z,20.30
2018-06-04T23:52:18.052Z,20.30
2018-06-04T23:54:45.837Z,20.30
2018-06-04T23:57:13.632Z,20.40
2018-06-04T23:59:42.460Z,20.40
